Time;durP1;ratioP1;P1;durP2;ratioP2;P2;SDS_P1;SDS_P2;PMS_P1;PMS_P2;Temp;Humidity;BMP_temperature;BMP_pressure;BME280_temperature;BME280_humidity;BME280_pressure;Samples;Min_cycle;Max_cycle;Signal;HPM_P1;HPM_P2
2023/06/22 00:02:15;;;;;;;8.70;5.25;;;;;;;-143.48;86.52;118439.88;5034673;28;20029;-77
2023/06/22 00:04:41;;;;;;;6.05;4.72;;;;;;;-143.48;86.38;118439.88;5033748;28;20512;-76
2023/06/22 00:07:06;;;;;;;13.38;6.00;;;;;;;-143.48;87.88;118439.88;5016911;28;20029;-76
2023/06/22 00:09:33;;;;;;;11.32;5.50;;;;;;;-143.48;86.84;118439.88;5016909;28;20104;-76
2023/06/22 00:11:58;;;;;;;11.05;5.53;;;;;;;-143.48;87.41;118439.88;5034353;28;20028;-76
2023/06/22 00:14:23;;;;;;;12.55;5.38;;;;;;;-143.48;87.78;118439.88;5016809;28;20033;-76
2023/06/22 00:16:49;;;;;;;8.68;5.40;;;;;;;-143.48;89.13;118439.88;5034387;28;20021;-76
2023/06/22 00:19:15;;;;;;;10.52;5.53;;;;;;;-143.48;89.60;118439.88;5016687;28;20033;-76
2023/06/22 00:21:42;;;;;;;9.73;6.13;;;;;;;-143.48;88.09;118439.88;5034266;28;20534;-76
2023/06/22 00:24:08;;;;;;;9.77;6.68;;;;;;;-143.48;88.21;118439.88;5016690;28;20022;-76
2023/06/22 00:26:33;;;;;;;12.60;9.07;;;;;;;-143.48;90.23;118439.88;5034324;28;20033;-76
2023/06/22 00:29:01;;;;;;;14.13;9.00;;;;;;;-143.48;90.05;118439.88;5016216;28;20068;-76
2023/06/22 00:31:26;;;;;;;17.20;8.40;;;;;;;-143.48;90.69;118439.88;5015668;28;20029;-76
2023/06/22 00:33:52;;;;;;;11.45;8.05;;;;;;;-143.48;91.27;118439.88;5014213;28;20057;-76
2023/06/22 00:36:17;;;;;;;12.57;7.75;;;;;;;-143.48;90.85;118439.88;5014380;28;20468;-76
2023/06/22 00:38:43;;;;;;;12.68;6.93;;;;;;;-143.48;90.85;118439.88;5031977;28;20071;-76
2023/06/22 00:41:08;;;;;;;10.93;6.53;;;;;;;-143.48;90.40;118439.88;5032396;28;20279;-76
2023/06/22 00:43:33;;;;;;;13.30;7.13;;;;;;;-143.48;90.73;118439.88;5032127;28;20079;-76
2023/06/22 00:45:59;;;;;;;12.85;7.35;;;;;;;-143.48;90.96;118439.88;5013923;28;20065;-76
2023/06/22 00:48:25;;;;;;;12.10;6.97;;;;;;;-143.48;91.34;118439.88;5032024;28;20067;-75
2023/06/22 00:50:53;;;;;;;10.25;6.47;;;;;;;-143.48;92.60;118439.88;5014863;28;20389;-75
2023/06/22 00:53:19;;;;;;;11.23;6.10;;;;;;;-143.48;92.21;118439.88;5033757;28;20028;-76
2023/06/22 00:55:51;;;;;;;10.35;6.15;;;;;;;-143.48;92.29;118439.88;5033621;28;20025;-75
2023/06/22 00:58:17;;;;;;;10.88;6.95;;;;;;;-143.48;93.05;118439.88;5015977;28;20029;-75
2023/06/22 01:00:42;;;;;;;10.35;6.95;;;;;;;-143.48;93.35;118439.88;5033580;28;20025;-76
2023/06/22 01:03:11;;;;;;;11.25;7.40;;;;;;;-143.48;93.27;118439.88;5015911;28;20120;-75
2023/06/22 01:05:37;;;;;;;14.27;7.75;;;;;;;-143.48;93.12;118439.88;5033637;28;20029;-76
2023/06/22 01:08:21;;;;;;;11.13;7.22;;;;;;;-143.48;93.97;118439.88;5015781;28;20029;-76
2023/06/22 01:11:07;;;;;;;14.52;7.00;;;;;;;-143.48;94.00;118439.88;5015727;28;20504;-75
2023/06/22 01:13:56;;;;;;;12.60;7.13;;;;;;;-143.48;95.35;118439.88;5033759;28;20094;-76
2023/06/22 01:16:31;;;;;;;11.55;6.68;;;;;;;-143.48;94.98;118439.88;5033561;28;20036;-76
2023/06/22 01:19:00;;;;;;;12.23;6.80;;;;;;;-143.48;95.62;118439.88;5015748;28;20417;-76
2023/06/22 01:21:29;;;;;;;10.52;6.82;;;;;;;-143.48;95.03;118439.88;5033343;28;20469;-76
2023/06/22 01:24:25;;;;;;;12.00;7.38;;;;;;;-143.48;96.19;118439.88;5015435;28;20034;-76
2023/06/22 01:27:11;;;;;;;12.05;7.43;;;;;;;-143.48;95.96;118439.88;5015546;28;20405;-76
2023/06/22 01:29:38;;;;;;;14.00;7.75;;;;;;;-143.48;96.34;118439.88;5033214;28;20072;-76
2023/06/22 01:32:05;;;;;;;12.65;8.40;;;;;;;-143.48;96.19;118439.88;5015624;28;20040;-76
2023/06/22 01:34:32;;;;;;;12.85;8.25;;;;;;;-143.48;96.37;118439.88;5015602;28;20120;-76
2023/06/22 01:36:59;;;;;;;10.40;7.85;;;;;;;-143.48;95.88;118439.88;5033421;28;20116;-76
2023/06/22 01:39:26;;;;;;;13.10;8.25;;;;;;;-143.48;95.54;118439.88;5033074;28;20059;-76
2023/06/22 01:41:53;;;;;;;12.15;8.50;;;;;;;-143.48;95.80;118439.88;5015340;28;20029;-76
2023/06/22 01:44:18;;;;;;;13.00;8.32;;;;;;;-143.48;96.50;118439.88;5032950;28;20037;-76
2023/06/22 01:46:45;;;;;;;14.93;8.20;;;;;;;-143.48;96.16;118439.88;5015344;28;20021;-76
2023/06/22 01:49:10;;;;;;;13.68;7.85;;;;;;;-143.48;95.90;118439.88;5033122;28;20392;-76
2023/06/22 01:51:36;;;;;;;12.75;7.60;;;;;;;-143.48;97.02;118439.88;5015214;28;20041;-76
2023/06/22 01:54:02;;;;;;;14.40;8.57;;;;;;;-143.48;97.94;118439.88;5033450;28;20499;-76
2023/06/22 01:56:28;;;;;;;14.57;7.80;;;;;;;-143.48;97.88;118439.88;5033103;28;20235;-76
2023/06/22 01:59:19;;;;;;;12.43;7.72;;;;;;;-143.48;97.35;118439.88;5032983;28;20033;-76
2023/06/22 02:02:00;;;;;;;12.30;7.80;;;;;;;-143.48;96.73;118439.88;5032694;28;20038;-76
2023/06/22 02:04:31;;;;;;;13.13;7.95;;;;;;;-143.48;97.46;118439.88;5015207;28;20108;-76
2023/06/22 02:06:59;;;;;;;13.25;8.27;;;;;;;-143.48;98.37;118439.88;5032836;28;20044;-76
2023/06/22 02:09:28;;;;;;;12.95;8.60;;;;;;;-143.48;98.32;118439.88;5032804;28;20017;-76
2023/06/22 02:11:56;;;;;;;13.13;8.23;;;;;;;-143.48;97.59;118439.88;5015092;28;20036;-76
2023/06/22 02:14:23;;;;;;;14.55;8.55;;;;;;;-143.48;96.88;118439.88;5032805;28;20496;-76
2023/06/22 02:16:50;;;;;;;13.82;8.93;;;;;;;-143.48;97.05;118439.88;5015030;28;20137;-76
2023/06/22 02:19:18;;;;;;;16.42;8.93;;;;;;;-143.48;97.01;118439.88;5032529;28;20053;-76
2023/06/22 02:21:43;;;;;;;18.95;9.52;;;;;;;-143.48;98.17;118439.88;5032715;28;20448;-76
2023/06/22 02:24:09;;;;;;;14.77;9.73;;;;;;;-143.48;98.19;118439.88;5032671;28;20049;-76
2023/06/22 02:26:34;;;;;;;14.93;9.30;;;;;;;-143.48;98.00;118439.88;5032904;28;20025;-76
2023/06/22 02:29:00;;;;;;;12.45;8.95;;;;;;;-143.48;97.09;118439.88;5036428;28;20084;-76
2023/06/22 02:31:30;;;;;;;14.93;9.35;;;;;;;-143.48;96.67;118439.88;5018610;28;20021;-76
2023/06/22 02:33:58;;;;;;;12.88;9.10;;;;;;;-143.48;96.98;118439.88;5018333;28;20075;-76
2023/06/22 02:36:24;;;;;;;14.38;9.63;;;;;;;-143.48;98.60;118439.88;5036140;28;20108;-76
2023/06/22 02:38:50;;;;;;;18.20;10.27;;;;;;;-143.48;99.13;118439.88;5018560;28;20036;-76
2023/06/22 02:41:18;;;;;;;20.88;10.40;;;;;;;-143.48;98.81;118439.88;5018450;28;20029;-77
2023/06/22 02:43:47;;;;;;;15.75;10.45;;;;;;;-143.48;99.79;118439.88;5036095;28;20025;-76
2023/06/22 02:46:13;;;;;;;16.30;9.98;;;;;;;-143.48;98.89;118439.88;5036232;28;20029;-76
2023/06/22 02:48:39;;;;;;;17.25;10.48;;;;;;;-143.48;99.04;118439.88;5018215;28;20144;-76
2023/06/22 02:51:05;;;;;;;16.92;9.90;;;;;;;-143.48;98.68;118439.88;5036084;28;20021;-76
2023/06/22 02:53:31;;;;;;;17.05;10.05;;;;;;;-143.48;98.43;118439.88;5035736;28;20037;-76
2023/06/22 02:55:56;;;;;;;18.63;10.63;;;;;;;-143.48;99.14;118439.88;5035854;28;20025;-76
2023/06/22 02:58:22;;;;;;;17.20;9.88;;;;;;;-143.48;99.04;118439.88;5018124;28;20029;-76
2023/06/22 03:00:47;;;;;;;14.18;9.75;;;;;;;-143.48;98.73;118439.88;5018009;28;20045;-76
2023/06/22 03:03:12;;;;;;;17.20;9.45;;;;;;;-143.48;98.75;118439.88;5035807;28;20087;-76
2023/06/22 03:05:40;;;;;;;14.10;8.85;;;;;;;-143.48;98.76;118439.88;5035686;28;20434;-76
2023/06/22 03:08:05;;;;;;;13.73;9.65;;;;;;;-143.48;98.75;118439.88;5035749;28;20420;-76
2023/06/22 03:10:30;;;;;;;14.25;9.65;;;;;;;-143.48;98.58;118439.88;5035563;28;20025;-76
2023/06/22 03:12:56;;;;;;;15.38;10.00;;;;;;;-143.48;98.81;118439.88;5035577;28;20022;-76
2023/06/22 03:15:21;;;;;;;16.95;10.23;;;;;;;-143.48;99.14;118439.88;5035688;28;20030;-76
2023/06/22 03:17:46;;;;;;;17.75;10.27;;;;;;;-143.48;98.21;118439.88;5035528;28;20022;-76
2023/06/22 03:20:12;;;;;;;17.85;10.68;;;;;;;-143.48;98.55;118439.88;5017681;28;20048;-76
2023/06/22 03:22:41;;;;;;;17.38;10.90;;;;;;;-143.48;99.05;118439.88;5017717;28;20025;-76
2023/06/22 03:25:13;;;;;;;18.02;11.57;;;;;;;-143.48;99.32;118439.88;5035536;28;20030;-76
2023/06/22 03:27:42;;;;;;;19.65;10.60;;;;;;;-143.48;99.31;118439.88;5035348;28;20445;-76
2023/06/22 03:30:09;;;;;;;17.70;9.80;;;;;;;-143.48;99.22;118439.88;5035247;28;20045;-76
2023/06/22 03:32:35;;;;;;;20.90;10.35;;;;;;;-143.48;99.03;118439.88;5035278;28;20030;-76
2023/06/22 03:35:00;;;;;;;14.48;10.18;;;;;;;-143.48;99.26;118439.88;5035189;28;20037;-76
2023/06/22 03:37:26;;;;;;;15.60;10.35;;;;;;;-143.48;99.23;118439.88;5035020;28;20104;-76
2023/06/22 03:39:52;;;;;;;17.00;10.45;;;;;;;-143.48;98.71;118439.88;5015911;28;20017;-76
2023/06/22 03:42:17;;;;;;;15.63;9.70;;;;;;;-143.48;97.75;118439.88;5034835;28;20088;-76
2023/06/22 03:44:43;;;;;;;13.40;9.15;;;;;;;-143.48;97.66;118439.88;5017141;28;20022;-76
2023/06/22 03:47:09;;;;;;;12.55;8.68;;;;;;;-143.48;97.82;118439.88;5034974;28;20052;-76
2023/06/22 03:49:34;;;;;;;13.75;9.07;;;;;;;-143.48;98.06;118439.88;5017082;28;20021;-76
2023/06/22 03:52:04;;;;;;;13.68;9.20;;;;;;;-143.48;97.17;118439.88;5034751;28;20056;-76
2023/06/22 03:54:30;;;;;;;15.52;9.05;;;;;;;-143.48;97.19;118439.88;5034739;28;20021;-76
2023/06/22 03:56:57;;;;;;;14.68;9.63;;;;;;;-143.48;96.83;118439.88;5016827;28;20032;-76
2023/06/22 03:59:23;;;;;;;17.63;9.93;;;;;;;-143.48;96.63;118439.88;5034746;28;20473;-76
2023/06/22 04:01:48;;;;;;;15.23;10.00;;;;;;;-143.48;97.87;118439.88;5016916;28;20035;-76
2023/06/22 04:04:15;;;;;;;14.27;9.50;;;;;;;-143.48;97.79;118439.88;5035047;28;20057;-76
2023/06/22 04:06:40;;;;;;;13.98;9.98;;;;;;;-143.48;98.60;118439.88;5034524;28;20455;-76
2023/06/22 04:09:06;;;;;;;15.50;9.98;;;;;;;-143.48;98.64;118439.88;5016678;28;20040;-76
2023/06/22 04:11:31;;;;;;;17.27;9.60;;;;;;;-143.48;99.05;118439.88;5034210;28;20013;-76
2023/06/22 04:13:56;;;;;;;14.45;9.75;;;;;;;-143.48;98.50;118439.88;5033646;28;20099;-76
2023/06/22 04:16:22;;;;;;;18.55;9.88;;;;;;;-143.48;97.11;118439.88;5015965;28;20583;-76
2023/06/22 04:18:47;;;;;;;17.73;10.35;;;;;;;-143.48;97.45;118439.88;5016425;28;20393;-76
2023/06/22 04:21:13;;;;;;;17.52;10.80;;;;;;;-143.48;98.21;118439.88;5034031;28;20469;-76
2023/06/22 04:23:38;;;;;;;16.50;10.60;;;;;;;-143.48;97.17;118439.88;5034113;28;20025;-76
2023/06/22 04:26:04;;;;;;;22.42;12.32;;;;;;;-143.48;97.37;118439.88;5034013;28;20026;-76
2023/06/22 04:28:30;;;;;;;18.38;11.98;;;;;;;-143.48;96.76;118439.88;5016278;28;20028;-76
2023/06/22 04:30:58;;;;;;;18.55;12.30;;;;;;;-143.48;96.22;118439.88;5033730;28;20068;-76
2023/06/22 04:33:23;;;;;;;20.65;12.40;;;;;;;-143.48;96.83;118439.88;5033876;28;20032;-76
2023/06/22 04:35:48;;;;;;;22.23;12.65;;;;;;;-143.48;97.04;118439.88;5033942;28;20037;-76
2023/06/22 04:38:14;;;;;;;24.20;12.73;;;;;;;-143.48;96.48;118439.88;5033883;28;20477;-76
2023/06/22 04:40:40;;;;;;;18.52;12.57;;;;;;;-143.48;96.69;118439.88;5033743;28;20037;-76
2023/06/22 04:43:06;;;;;;;19.98;12.52;;;;;;;-143.48;95.93;118439.88;5016044;28;20057;-76
2023/06/22 04:45:32;;;;;;;20.73;13.00;;;;;;;-143.48;96.54;118439.88;5033700;28;20037;-76
2023/06/22 04:47:58;;;;;;;21.55;13.98;;;;;;;-143.48;96.57;118439.88;5033619;28;20018;-76
2023/06/22 04:50:23;;;;;;;24.75;15.20;;;;;;;-143.48;97.21;118439.88;5033339;28;20532;-76
2023/06/22 04:52:50;;;;;;;24.08;14.95;;;;;;;-143.48;96.93;118439.88;5015803;28;20167;-76
2023/06/22 04:55:18;;;;;;;22.92;14.55;;;;;;;-143.48;96.52;118439.88;5033495;28;20033;-76
2023/06/22 04:57:48;;;;;;;24.83;15.38;;;;;;;-143.48;95.89;118439.88;5033376;28;20018;-77
2023/06/22 05:00:16;;;;;;;23.70;14.88;;;;;;;-143.48;96.16;118439.88;5015689;28;20456;-76
2023/06/22 05:02:44;;;;;;;24.95;15.32;;;;;;;-143.48;96.96;118439.88;5015627;28;20021;-76
2023/06/22 05:05:13;;;;;;;26.23;15.73;;;;;;;-143.48;95.83;118439.88;5015569;28;20053;-76
2023/06/22 05:07:48;;;;;;;22.88;14.95;;;;;;;-143.48;95.47;118439.88;5033358;28;20389;-76
2023/06/22 05:10:13;;;;;;;26.33;17.15;;;;;;;-143.48;94.36;118439.88;5015519;28;20022;-76
2023/06/22 05:12:40;;;;;;;26.70;17.10;;;;;;;-143.48;93.33;118439.88;5033448;28;20030;-76
2023/06/22 05:15:09;;;;;;;30.52;17.92;;;;;;;-143.48;91.82;118439.88;5015596;28;20029;-76
2023/06/22 05:17:35;;;;;;;26.65;17.45;;;;;;;-143.48;92.40;118439.88;5033177;28;20025;-76
2023/06/22 05:20:02;;;;;;;32.05;19.25;;;;;;;-143.48;93.25;118439.88;5015448;28;20034;-76
2023/06/22 05:22:27;;;;;;;32.10;18.92;;;;;;;-143.48;94.28;118439.88;5033205;28;20032;-76
2023/06/22 05:24:52;;;;;;;30.65;19.33;;;;;;;-143.48;94.23;118439.88;5015715;28;20469;-76
2023/06/22 05:27:18;;;;;;;34.50;19.90;;;;;;;-143.48;92.13;118439.88;5033434;28;20542;-76
2023/06/22 05:29:43;;;;;;;34.17;20.33;;;;;;;-143.48;90.59;118439.88;5033255;28;20057;-76
2023/06/22 05:32:09;;;;;;;30.42;19.63;;;;;;;-143.48;85.40;118439.88;5033104;28;20489;-76
2023/06/22 05:34:34;;;;;;;26.60;18.67;;;;;;;-143.48;77.21;118439.88;5033947;28;20038;-75
2023/06/22 05:37:00;;;;;;;28.27;19.48;;;;;;;-143.48;77.98;118439.88;5033898;28;20044;-76
2023/06/22 05:39:25;;;;;;;24.40;18.05;;;;;;;-143.48;74.93;118439.88;5015686;28;20469;-76
2023/06/22 05:41:51;;;;;;;26.73;18.67;;;;;;;-143.48;72.46;118439.88;5033584;28;20028;-76
2023/06/22 05:44:17;;;;;;;26.02;19.20;;;;;;;-143.48;70.24;118439.88;5034299;28;20033;-77
2023/06/22 05:46:48;;;;;;;25.38;18.75;;;;;;;-143.48;80.24;118439.88;5033077;28;20043;-76
2023/06/22 05:49:13;;;;;;;31.00;19.70;;;;;;;-143.48;86.48;118439.88;5033129;28;20036;-77
2023/06/22 05:51:39;;;;;;;30.38;20.88;;;;;;;-143.48;86.97;118439.88;5033084;28;20029;-77
2023/06/22 05:54:05;;;;;;;29.90;20.95;;;;;;;-143.48;82.80;118439.88;5033064;28;20029;-76
2023/06/22 05:56:30;;;;;;;29.70;20.27;;;;;;;-143.48;73.86;118439.88;5032893;28;20033;-76
2023/06/22 05:58:56;;;;;;;30.55;19.38;;;;;;;-143.48;72.29;118439.88;5032986;28;20032;-77
2023/06/22 06:01:21;;;;;;;31.65;20.50;;;;;;;-143.48;79.43;118439.88;5014642;28;20496;-77
2023/06/22 06:03:49;;;;;;;31.33;21.02;;;;;;;-143.48;81.94;118439.88;5018881;28;20025;-76
2023/06/22 06:06:15;;;;;;;33.08;20.80;;;;;;;-143.48;83.27;118439.88;5035874;28;20067;-77
2023/06/22 06:08:41;;;;;;;35.13;21.67;;;;;;;-143.48;84.64;118439.88;5036726;28;20025;-76
2023/06/22 06:11:06;;;;;;;42.38;22.13;;;;;;;-143.48;84.58;118439.88;5036509;28;20021;-75
2023/06/22 06:13:31;;;;;;;32.10;21.70;;;;;;;-143.48;80.97;118439.88;5036738;28;20028;-75
2023/06/22 06:15:57;;;;;;;31.58;20.52;;;;;;;-143.48;71.71;118439.88;5036683;28;20056;-76
2023/06/22 06:18:23;;;;;;;32.33;19.90;;;;;;;-143.48;65.90;118439.88;5036491;28;20036;-75
2023/06/22 06:20:48;;;;;;;34.85;20.38;;;;;;;-143.48;71.84;118439.88;5036060;28;20029;-75
2023/06/22 06:23:14;;;;;;;30.95;20.88;;;;;;;-143.48;72.69;118439.88;5035294;28;20021;-75
2023/06/22 06:25:39;;;;;;;29.83;20.10;;;;;;;-143.48;72.14;118439.88;5036181;28;20478;-75
2023/06/22 06:28:05;;;;;;;32.60;20.20;;;;;;;-143.48;76.93;118439.88;5036387;28;20465;-75
2023/06/22 06:30:30;;;;;;;30.02;20.02;;;;;;;-143.48;76.54;118439.88;5035896;28;20049;-72
2023/06/22 06:32:55;;;;;;;28.90;19.73;;;;;;;-143.48;74.43;118439.88;5036086;28;20068;-71
2023/06/22 06:35:21;;;;;;;25.98;18.40;;;;;;;-143.48;73.92;118439.88;5018336;28;20053;-72
2023/06/22 06:37:48;;;;;;;27.83;18.88;;;;;;;-143.48;72.17;118439.88;5018327;28;20032;-72
2023/06/22 06:40:15;;;;;;;26.83;18.27;;;;;;;-143.48;72.72;118439.88;5018115;28;20024;-72
2023/06/22 06:42:45;;;;;;;24.73;16.42;;;;;;;-143.48;68.94;118439.88;5018210;28;20055;-73
2023/06/22 06:45:32;;;;;;;27.00;18.67;;;;;;;-143.48;71.28;118439.88;5036197;28;20025;-73
2023/06/22 06:47:58;;;;;;;29.73;17.58;;;;;;;-143.48;71.01;118439.88;5017914;28;20024;-72
2023/06/22 06:50:23;;;;;;;31.00;19.20;;;;;;;-143.48;73.35;118439.88;5018035;28;20021;-72
2023/06/22 06:52:50;;;;;;;24.90;17.42;;;;;;;-143.48;70.54;118439.88;5035790;28;20033;-73
2023/06/22 06:55:15;;;;;;;24.83;17.48;;;;;;;-143.48;71.63;118439.88;5036151;28;20033;-73
2023/06/22 06:57:42;;;;;;;24.10;17.23;;;;;;;-143.48;69.73;118439.88;5035612;28;20033;-73
2023/06/22 07:00:11;;;;;;;24.77;16.52;;;;;;;-143.48;68.69;118439.88;5035612;28;20076;-74
2023/06/22 07:02:40;;;;;;;24.08;16.38;;;;;;;-143.48;67.77;118439.88;5017677;28;20097;-74
2023/06/22 07:05:05;;;;;;;26.52;17.08;;;;;;;-143.48;69.38;118439.88;5017737;28;20027;-74
2023/06/22 07:07:31;;;;;;;25.02;16.80;;;;;;;-143.48;70.72;118439.88;5017247;28;20366;-71
2023/06/22 07:09:57;;;;;;;23.70;17.33;;;;;;;-143.48;69.61;118439.88;5017593;28;20465;-74
2023/06/22 07:12:22;;;;;;;24.38;16.40;;;;;;;-143.48;64.86;118439.88;5017350;28;20021;-74
2023/06/22 07:14:48;;;;;;;23.48;15.48;;;;;;;-143.48;63.40;118439.88;5017139;28;20025;-74
2023/06/22 07:17:13;;;;;;;22.60;16.02;;;;;;;-143.48;63.67;118439.88;5017354;28;20049;-73
2023/06/22 07:19:40;;;;;;;21.77;16.25;;;;;;;-143.48;65.00;118439.88;5033410;28;20017;-74
2023/06/22 07:22:05;;;;;;;21.80;14.93;;;;;;;-143.48;61.80;118439.88;5033915;28;20164;-74
2023/06/22 07:24:32;;;;;;;19.55;14.45;;;;;;;-143.48;61.85;118439.88;5017558;28;20065;-73
2023/06/22 07:26:58;;;;;;;18.42;13.45;;;;;;;-143.48;60.58;118439.88;5017584;28;20075;-73
2023/06/22 07:29:24;;;;;;;21.33;15.65;;;;;;;-143.48;61.26;118439.88;5017215;28;20049;-74
2023/06/22 07:31:51;;;;;;;20.33;13.30;;;;;;;-143.48;61.32;118439.88;5035272;28;20128;-74
2023/06/22 07:34:17;;;;;;;23.88;15.32;;;;;;;-143.48;61.86;118439.88;5035069;28;20097;-74
2023/06/22 07:36:43;;;;;;;23.65;16.23;;;;;;;-143.48;62.67;118439.88;5034138;28;20056;-74
2023/06/22 07:39:08;;;;;;;24.05;15.95;;;;;;;-143.48;62.78;118439.88;5035038;28;20087;-74
2023/06/22 07:41:33;;;;;;;22.60;16.80;;;;;;;-143.48;59.92;118439.88;5034804;28;20033;-74
2023/06/22 07:43:59;;;;;;;27.67;15.90;;;;;;;-143.48;58.86;118439.88;5016959;28;20021;-74
2023/06/22 07:46:24;;;;;;;25.58;16.40;;;;;;;-143.48;61.29;118439.88;5034953;28;20408;-73
2023/06/22 07:48:50;;;;;;;22.48;15.95;;;;;;;-143.48;58.10;118439.88;5016952;28;20074;-74
2023/06/22 07:51:15;;;;;;;25.33;15.02;;;;;;;-143.48;57.53;118439.88;5034623;28;20052;-74
2023/06/22 07:53:42;;;;;;;21.15;14.85;;;;;;;-143.48;56.55;118439.88;5016897;28;20392;-74
2023/06/22 07:56:10;;;;;;;22.20;15.18;;;;;;;-143.48;58.50;118439.88;5034552;28;20109;-74
2023/06/22 07:58:36;;;;;;;21.42;15.48;;;;;;;-143.48;63.36;118439.88;5034675;28;20535;-73
2023/06/22 08:01:02;;;;;;;20.83;14.95;;;;;;;-143.48;60.20;118439.88;5034377;28;20064;-73
2023/06/22 08:03:27;;;;;;;20.40;14.45;;;;;;;-143.48;59.36;118439.88;5034643;28;20025;-74
2023/06/22 08:05:52;;;;;;;23.02;14.68;;;;;;;-143.48;55.71;118439.88;5016703;28;20136;-73
2023/06/22 08:08:18;;;;;;;16.30;11.55;;;;;;;-143.48;55.40;118439.88;5034316;28;20445;-75
2023/06/22 08:10:43;;;;;;;19.08;13.30;;;;;;;-143.48;55.23;118439.88;5016604;28;20018;-73
2023/06/22 08:13:10;;;;;;;19.27;12.93;;;;;;;-143.48;55.98;118439.88;5032826;28;20025;-75
2023/06/22 08:15:35;;;;;;;19.88;13.45;;;;;;;-143.48;55.52;118439.88;5032812;28;20028;-75
2023/06/22 08:18:01;;;;;;;17.73;13.07;;;;;;;-143.48;55.12;118439.88;5034000;28;20465;-75
2023/06/22 08:20:26;;;;;;;17.30;12.63;;;;;;;-143.48;54.94;118439.88;5016667;28;20022;-75
2023/06/22 08:22:53;;;;;;;16.95;11.00;;;;;;;-143.48;54.23;118439.88;5034158;28;20500;-74
2023/06/22 08:25:19;;;;;;;20.10;12.10;;;;;;;-143.48;55.92;118439.88;5033473;28;20474;-76
2023/06/22 08:27:46;;;;;;;18.65;12.48;;;;;;;-143.48;53.04;118439.88;5034087;28;20022;-75
2023/06/22 08:30:12;;;;;;;15.10;11.02;;;;;;;-143.48;53.68;118439.88;5033917;28;20042;-76
2023/06/22 08:32:38;;;;;;;16.35;12.02;;;;;;;-143.48;52.74;118439.88;5034260;28;20377;-74
2023/06/22 08:35:03;;;;;;;16.33;11.35;;;;;;;-143.48;53.06;118439.88;5016087;28;20047;-75
2023/06/22 08:37:35;;;;;;;14.93;10.35;;;;;;;-143.48;51.54;118439.88;5032612;28;20025;-74
2023/06/22 08:40:01;;;;;;;16.73;11.10;;;;;;;-143.48;50.98;118439.88;5033607;28;20048;-74
2023/06/22 08:42:27;;;;;;;14.93;10.30;;;;;;;-143.48;51.75;118439.88;5033499;28;20124;-74
2023/06/22 08:44:53;;;;;;;16.50;11.00;;;;;;;-143.48;52.51;118439.88;5033744;28;20040;-75
2023/06/22 08:47:19;;;;;;;20.23;11.05;;;;;;;-143.48;51.93;118439.88;5016073;28;20097;-75
2023/06/22 08:49:44;;;;;;;804.15;75.85;;;;;;;-143.48;49.34;118439.88;5032144;28;20041;-75
2023/06/22 08:52:10;;;;;;;16.27;10.20;;;;;;;-143.48;52.00;118439.88;5015734;28;20140;-75
2023/06/22 08:54:35;;;;;;;15.63;10.05;;;;;;;-143.48;50.23;118439.88;5033556;28;20095;-75
2023/06/22 08:57:02;;;;;;;14.60;10.15;;;;;;;-143.48;52.23;118439.88;5033490;28;20392;-75
2023/06/22 08:59:27;;;;;;;15.18;9.95;;;;;;;-143.48;51.60;118439.88;5033538;28;20025;-75
2023/06/22 09:01:52;;;;;;;14.63;9.50;;;;;;;-143.48;50.83;118439.88;5033635;28;20490;-76
2023/06/22 09:04:18;;;;;;;16.25;9.00;;;;;;;-143.48;51.53;118439.88;5033439;28;20389;-75
2023/06/22 09:06:45;;;;;;;13.40;9.98;;;;;;;-143.48;50.42;118439.88;5032599;28;20033;-75
2023/06/22 09:09:12;;;;;;;18.13;9.85;;;;;;;-143.48;50.18;118439.88;5033532;28;20025;-75
2023/06/22 09:11:37;;;;;;;14.68;8.60;;;;;;;-143.48;48.79;118439.88;5033499;28;20026;-76
2023/06/22 09:14:03;;;;;;;13.38;8.00;;;;;;;-143.48;49.88;118439.88;5033393;28;20122;-76
2023/06/22 09:16:30;;;;;;;12.50;8.68;;;;;;;-143.48;50.66;118439.88;5015621;28;20017;-76
2023/06/22 09:18:55;;;;;;;18.02;8.35;;;;;;;-143.48;51.27;118439.88;5033188;28;20064;-76
2023/06/22 09:21:21;;;;;;;10.98;7.53;;;;;;;-143.48;49.01;118439.88;5033109;28;20033;-76
2023/06/22 09:23:50;;;;;;;18.25;7.35;;;;;;;-143.48;48.47;118439.88;5015379;28;20036;-76
2023/06/22 09:26:15;;;;;;;9.90;5.40;;;;;;;-143.48;47.87;118439.88;5033119;28;20500;-75
2023/06/22 09:28:40;;;;;;;11.77;7.85;;;;;;;-143.48;50.91;118439.88;5033129;28;20021;-75
2023/06/22 09:31:06;;;;;;;12.15;7.25;;;;;;;-143.48;50.73;118439.88;5015265;28;20381;-75
2023/06/22 09:33:32;;;;;;;12.95;6.40;;;;;;;-143.48;49.06;118439.88;5033094;28;20385;-75
2023/06/22 09:35:57;;;;;;;10.00;5.65;;;;;;;-143.48;49.48;118439.88;5014259;28;20053;-75
2023/06/22 09:38:22;;;;;;;13.10;6.90;;;;;;;-143.48;49.36;118439.88;5032373;28;20024;-76
2023/06/22 09:40:48;;;;;;;12.27;6.68;;;;;;;-143.48;49.18;118439.88;5032921;28;20104;-75
2023/06/22 09:43:13;;;;;;;9.05;6.25;;;;;;;-143.48;51.30;118439.88;5014998;28;20022;-75
2023/06/22 09:45:39;;;;;;;10.77;6.65;;;;;;;-143.48;48.15;118439.88;5032971;28;20025;-75
2023/06/22 09:48:04;;;;;;;11.55;6.32;;;;;;;-143.48;49.06;118439.88;5015243;28;20160;-75
2023/06/22 09:50:29;;;;;;;9.00;5.82;;;;;;;-143.48;49.60;118439.88;5032683;28;20017;-76
2023/06/22 09:52:55;;;;;;;9.57;6.10;;;;;;;-143.48;47.46;118439.88;5015280;28;20021;-75
2023/06/22 09:55:21;;;;;;;11.07;6.38;;;;;;;-143.48;47.84;118439.88;5014981;28;20076;-75
2023/06/22 09:57:47;;;;;;;12.73;6.38;;;;;;;-143.48;49.96;118439.88;5032775;28;20108;-75
2023/06/22 10:00:13;;;;;;;10.40;7.15;;;;;;;-143.48;49.42;118439.88;5032666;28;20532;-75
2023/06/22 10:02:39;;;;;;;10.30;6.15;;;;;;;-143.48;49.17;118439.88;5032784;28;20044;-75
2023/06/22 10:05:05;;;;;;;11.70;6.80;;;;;;;-143.48;50.63;118439.88;5032636;28;20469;-75
2023/06/22 10:07:30;;;;;;;15.48;7.10;;;;;;;-143.48;50.74;118439.88;5014786;28;20056;-75
2023/06/22 10:09:55;;;;;;;9.10;5.30;;;;;;;-143.48;51.06;118439.88;5032522;28;20025;-76
2023/06/22 10:12:21;;;;;;;10.60;6.32;;;;;;;-143.48;50.01;118439.88;5014927;28;20029;-76
2023/06/22 10:14:46;;;;;;;10.40;6.30;;;;;;;-143.48;50.74;118439.88;5014927;28;20401;-76
2023/06/22 10:17:11;;;;;;;13.32;6.63;;;;;;;-143.48;50.53;118439.88;5032608;28;20030;-76
2023/06/22 10:19:38;;;;;;;11.85;6.25;;;;;;;-143.48;50.90;118439.88;5032621;28;20017;-76
2023/06/22 10:22:05;;;;;;;11.13;7.03;;;;;;;-143.48;51.19;118439.88;5014824;28;20048;-75
2023/06/22 10:24:30;;;;;;;11.05;6.25;;;;;;;-143.48;50.39;118439.88;5032619;28;20034;-76
2023/06/22 10:26:55;;;;;;;15.20;6.63;;;;;;;-143.48;50.86;118439.88;5032401;28;20084;-75
2023/06/22 10:29:21;;;;;;;11.45;6.25;;;;;;;-143.48;51.59;118439.88;5032268;28;20047;-74
2023/06/22 10:31:46;;;;;;;8.43;5.93;;;;;;;-143.48;52.04;118439.88;5014239;28;20025;-75
2023/06/22 10:34:11;;;;;;;12.77;6.72;;;;;;;-143.48;52.31;118439.88;5032455;28;20029;-74
2023/06/22 10:36:37;;;;;;;11.48;5.57;;;;;;;-143.48;52.12;118439.88;5032386;28;20049;-74
2023/06/22 10:39:02;;;;;;;9.32;5.78;;;;;;;-143.48;50.04;118439.88;5032376;28;20108;-76
2023/06/22 10:41:29;;;;;;;9.50;5.47;;;;;;;-143.48;51.06;118439.88;5014571;28;20485;-74
2023/06/22 10:43:55;;;;;;;13.55;5.70;;;;;;;-143.48;50.45;118439.88;5032636;28;20032;-74
2023/06/22 10:46:21;;;;;;;9.90;5.95;;;;;;;-143.48;52.23;118439.88;5032711;28;20033;-74
2023/06/22 10:48:46;;;;;;;10.13;6.07;;;;;;;-143.48;52.34;118439.88;5016134;28;20025;-75
2023/06/22 10:51:12;;;;;;;11.43;6.28;;;;;;;-143.48;52.40;118439.88;5018635;28;20471;-76
2023/06/22 10:53:37;;;;;;;11.63;6.30;;;;;;;-143.48;52.42;118439.88;5036595;28;20026;-77
2023/06/22 10:56:03;;;;;;;9.63;6.10;;;;;;;-143.48;53.05;118439.88;5018321;28;20029;-71